Dunseith, North Dakota
Current Conditions -  °F | °C
As of 1:55 PM on Thursday 30 Oct 2014 (Local Time) from K06D Reporting Station
Few Clouds Few Clouds  
Wind Chill: 20°   Ceiling: Unl
Heat Index: 32°   Visibility: 10mi
Dew Point: 18°   Wind: 21mph
Humidity: 55%   Direction: 10°N
Pressure: 30.41"   Gusts: 25mph
Location:  48.81°N, 100.06°W
Report Text: K06D 301855Z AUTO 01018G22KT 10SM FEW030 00/M08 A3041 RMK AO2
Loading
Personal Weather Stations






























Interactive Weather Map
Tropical Storm Tracking
New forecast layout! Learn more

10-Day Weather Forecast

Advertisements
Track Severe Weather on mobile